createdAt,value
2022-12-05T00:01:23.023Z,21.73
2022-12-05T00:03:52.235Z,22.13
2022-12-05T00:06:21.251Z,22.20
2022-12-05T00:08:50.079Z,23.20
2022-12-05T00:11:21.689Z,21.90
2022-12-05T00:13:50.586Z,21.90
2022-12-05T00:16:21.329Z,23.07
2022-12-05T00:18:50.088Z,22.30
2022-12-05T00:21:19.224Z,22.17
2022-12-05T00:23:48.099Z,20.07
2022-12-05T00:26:16.739Z,18.53
2022-12-05T00:28:45.884Z,20.10
2022-12-05T00:31:16.280Z,18.70
2022-12-05T00:33:46.225Z,18.87
2022-12-05T00:36:15.354Z,20.70
2022-12-05T00:38:44.064Z,18.20
2022-12-05T00:41:13.386Z,20.77
2022-12-05T00:43:41.870Z,21.03
2022-12-05T00:46:11.433Z,19.53
2022-12-05T00:48:40.010Z,19.17
2022-12-05T00:51:11.067Z,20.57
2022-12-05T00:53:39.739Z,19.40
2022-12-05T00:56:09.804Z,17.50
2022-12-05T00:58:38.439Z,20.00
2022-12-05T01:01:07.689Z,21.67
2022-12-05T01:03:36.248Z,19.63
2022-12-05T01:06:05.986Z,19.60
2022-12-05T01:08:36.257Z,19.23
2022-12-05T01:11:05.477Z,19.63
2022-12-05T01:13:34.370Z,18.70
2022-12-05T01:16:03.150Z,21.17
2022-12-05T01:18:31.605Z,19.60
2022-12-05T01:21:00.329Z,21.10
2022-12-05T01:23:28.759Z,19.43
2022-12-05T01:25:58.509Z,21.27
2022-12-05T01:28:27.144Z,19.67
2022-12-05T01:30:55.780Z,18.77
2022-12-05T01:33:24.321Z,19.33
2022-12-05T01:35:52.885Z,19.70
2022-12-05T01:38:21.444Z,18.50
2022-12-05T01:40:50.047Z,21.20
2022-12-05T01:43:20.240Z,19.93
2022-12-05T01:45:48.865Z,19.57
2022-12-05T01:48:20.169Z,19.10
2022-12-05T01:50:49.484Z,18.90
2022-12-05T01:53:18.045Z,21.13
2022-12-05T01:55:46.722Z,20.23
2022-12-05T01:58:15.391Z,20.23
2022-12-05T02:00:45.207Z,19.60
2022-12-05T02:03:16.333Z,19.73
2022-12-05T02:05:44.774Z,20.57
2022-12-05T02:08:13.347Z,20.23
2022-12-05T02:10:43.453Z,19.90
2022-12-05T02:13:27.073Z,19.03
2022-12-05T02:16:00.732Z,21.40
2022-12-05T02:18:35.442Z,20.40
2022-12-05T02:21:10.128Z,19.43
2022-12-05T02:23:48.447Z,21.43
2022-12-05T02:26:24.242Z,20.43
2022-12-05T02:29:14.879Z,20.60
2022-12-05T02:31:49.475Z,19.50
2022-12-05T02:34:21.696Z,19.03
2022-12-05T02:36:52.775Z,20.23
2022-12-05T02:39:24.620Z,19.80
2022-12-05T02:41:54.830Z,20.53
2022-12-05T02:44:24.700Z,21.20
2022-12-05T02:46:56.004Z,19.47
2022-12-05T02:49:26.891Z,19.63
2022-12-05T02:51:57.958Z,19.77
2022-12-05T02:54:28.435Z,20.33
2022-12-05T02:56:58.178Z,21.00
2022-12-05T02:59:26.604Z,21.13
2022-12-05T03:01:56.389Z,21.77
2022-12-05T03:04:26.043Z,19.70
2022-12-05T03:06:57.877Z,19.90
2022-12-05T03:09:28.776Z,20.80
2022-12-05T03:12:02.798Z,20.57
2022-12-05T03:14:33.853Z,20.70
2022-12-05T03:17:05.270Z,20.00
2022-12-05T03:19:36.953Z,20.77
2022-12-05T03:22:08.389Z,20.20
2022-12-05T03:24:39.425Z,19.10
2022-12-05T03:27:10.583Z,19.30
2022-12-05T03:29:41.362Z,21.43
2022-12-05T03:32:12.773Z,18.80
2022-12-05T03:34:47.681Z,20.53
2022-12-05T03:37:20.663Z,20.73
2022-12-05T03:39:51.596Z,20.70
2022-12-05T03:42:22.865Z,19.57
2022-12-05T03:44:53.843Z,20.57
2022-12-05T03:47:27.628Z,19.03
2022-12-05T03:49:59.759Z,16.73
2022-12-05T03:52:31.322Z,16.47
2022-12-05T03:55:03.417Z,17.97
2022-12-05T03:57:34.894Z,19.50
2022-12-05T04:00:04.992Z,19.47
2022-12-05T04:02:45.496Z,18.37
2022-12-05T04:05:16.381Z,17.03
2022-12-05T04:07:46.934Z,20.40
2022-12-05T04:10:17.419Z,18.80
2022-12-05T04:12:46.758Z,17.67
2022-12-05T04:15:19.175Z,19.93
2022-12-05T04:17:53.692Z,19.17
2022-12-05T04:20:42.181Z,19.70
2022-12-05T04:23:11.154Z,19.00
2022-12-05T04:25:40.215Z,18.17
2022-12-05T04:28:21.399Z,18.53
2022-12-05T04:30:52.407Z,19.10
2022-12-05T04:33:24.828Z,17.83
2022-12-05T04:35:55.526Z,19.37
2022-12-05T04:38:28.473Z,17.73
2022-12-05T04:40:59.326Z,19.13
2022-12-05T04:43:28.464Z,18.47
2022-12-05T04:45:58.008Z,19.43
2022-12-05T04:48:29.186Z,18.60
2022-12-05T04:50:58.003Z,16.60
2022-12-05T04:53:28.076Z,20.20
2022-12-05T04:55:57.689Z,20.03
2022-12-05T04:58:27.511Z,19.90
2022-12-05T05:00:58.260Z,20.97
2022-12-05T05:03:30.089Z,18.07
2022-12-05T05:05:58.855Z,20.13
2022-12-05T05:08:28.953Z,20.77
2022-12-05T05:11:02.665Z,18.97
2022-12-05T05:13:31.103Z,18.93
2022-12-05T05:15:59.766Z,19.80
2022-12-05T05:18:29.594Z,18.20
2022-12-05T05:20:57.930Z,19.97
2022-12-05T05:23:26.347Z,19.70
2022-12-05T05:25:55.342Z,19.93
2022-12-05T05:28:24.126Z,18.50
2022-12-05T05:30:52.556Z,18.83
2022-12-05T05:33:21.017Z,20.30
2022-12-05T05:35:50.735Z,19.10
2022-12-05T05:38:19.172Z,18.80
2022-12-05T05:40:47.521Z,20.13
2022-12-05T05:43:15.937Z,20.47
2022-12-05T05:45:44.316Z,19.43
2022-12-05T05:48:12.681Z,20.60
2022-12-05T05:50:41.007Z,21.80
2022-12-05T05:53:10.793Z,22.30
2022-12-05T05:55:40.900Z,21.03
2022-12-05T05:58:09.401Z,21.43
2022-12-05T06:00:38.033Z,21.47
2022-12-05T06:03:06.620Z,21.40
2022-12-05T06:05:35.141Z,22.67
2022-12-05T06:08:03.608Z,21.67
2022-12-05T06:10:33.814Z,20.73
2022-12-05T06:13:02.507Z,22.87
2022-12-05T06:15:30.850Z,22.90
2022-12-05T06:17:59.234Z,21.53
2022-12-05T06:20:27.616Z,23.17
2022-12-05T06:22:56.377Z,21.90
2022-12-05T06:25:24.739Z,22.83
2022-12-05T06:27:54.507Z,21.30
2022-12-05T06:30:22.878Z,22.30
2022-12-05T06:32:51.779Z,22.03
2022-12-05T06:35:20.219Z,21.87
2022-12-05T06:37:48.642Z,22.43
2022-12-05T06:40:17.015Z,22.93
2022-12-05T06:42:45.508Z,21.87
2022-12-05T06:45:15.331Z,22.50
2022-12-05T06:47:43.839Z,21.20
2022-12-05T06:50:12.643Z,20.47
2022-12-05T06:52:41.210Z,21.17
2022-12-05T06:55:09.854Z,20.50
2022-12-05T06:57:38.247Z,21.13
2022-12-05T07:00:25.215Z,20.77
2022-12-05T07:02:55.280Z,21.00
2022-12-05T07:05:23.668Z,22.17
2022-12-05T07:07:52.269Z,23.57
2022-12-05T07:10:20.804Z,22.80
2022-12-05T07:12:49.193Z,23.83
2022-12-05T07:15:17.636Z,23.40
2022-12-05T07:17:45.997Z,22.97
2022-12-05T07:20:17.842Z,24.07
2022-12-05T07:22:46.564Z,23.13
2022-12-05T07:25:14.953Z,23.33
2022-12-05T07:27:43.320Z,23.83
2022-12-05T07:30:11.953Z,23.47
2022-12-05T07:32:40.309Z,21.23
2022-12-05T07:35:08.926Z,21.97
2022-12-05T07:37:38.693Z,23.80
2022-12-05T07:40:07.796Z,20.87
2022-12-05T07:42:36.222Z,21.87
2022-12-05T07:45:04.593Z,22.70
2022-12-05T07:47:33.084Z,21.67
2022-12-05T07:50:01.491Z,23.87
2022-12-05T07:52:29.922Z,23.07
2022-12-05T07:54:59.643Z,24.20
2022-12-05T07:57:28.025Z,24.17
2022-12-05T07:59:56.605Z,22.87
2022-12-05T08:02:25.365Z,23.93
2022-12-05T08:04:53.796Z,23.67
2022-12-05T08:07:22.186Z,24.33
2022-12-05T08:09:51.680Z,23.57
2022-12-05T08:12:21.441Z,22.43
2022-12-05T08:14:49.800Z,23.73
2022-12-05T08:17:18.864Z,24.17
2022-12-05T08:19:47.237Z,23.67
2022-12-05T08:22:15.679Z,23.03
2022-12-05T08:24:44.452Z,21.27
2022-12-05T08:27:13.027Z,21.53
2022-12-05T08:29:42.847Z,23.33
2022-12-05T08:32:11.242Z,22.50
2022-12-05T08:34:39.646Z,20.80
2022-12-05T08:37:08.077Z,22.03
2022-12-05T08:39:38.952Z,20.90
2022-12-05T08:42:07.851Z,21.23
2022-12-05T08:44:36.215Z,19.13
2022-12-05T08:47:06.005Z,19.50
2022-12-05T08:49:34.409Z,20.67
2022-12-05T08:52:02.805Z,18.70
2022-12-05T08:54:31.129Z,20.07
2022-12-05T08:56:59.723Z,18.90
2022-12-05T08:59:28.161Z,18.83
2022-12-05T09:01:56.625Z,18.40
2022-12-05T09:04:26.396Z,20.63
2022-12-05T09:06:54.447Z,21.37
2022-12-05T09:09:22.548Z,20.07
2022-12-05T09:11:51.064Z,20.50
2022-12-05T09:14:19.742Z,20.13
2022-12-05T09:16:48.827Z,21.50
2022-12-05T09:19:20.108Z,20.97
2022-12-05T09:21:49.568Z,20.93
2022-12-05T09:24:17.647Z,20.60
2022-12-05T09:26:45.740Z,22.33
2022-12-05T09:29:17.334Z,21.77
2022-12-05T09:31:48.438Z,18.20
2022-12-05T09:34:18.074Z,19.05
2022-12-05T09:36:49.642Z,18.70
2022-12-05T09:39:20.255Z,19.40
2022-12-05T09:42:18.362Z,20.30
2022-12-05T09:45:07.039Z,21.10
2022-12-05T09:47:46.456Z,19.50
2022-12-05T09:50:19.797Z,20.37
2022-12-05T09:53:00.442Z,20.17
2022-12-05T09:55:36.977Z,18.73
2022-12-05T09:58:06.584Z,18.37
2022-12-05T10:00:34.907Z,19.50
2022-12-05T10:03:12.877Z,18.80
2022-12-05T10:05:48.616Z,18.83
2022-12-05T10:08:22.601Z,19.03
2022-12-05T10:11:01.746Z,16.00
2022-12-05T10:13:43.514Z,15.87
2022-12-05T10:16:18.666Z,15.47
2022-12-05T10:18:52.867Z,18.33
2022-12-05T10:21:25.800Z,17.87
2022-12-05T10:23:58.802Z,15.37
2022-12-05T10:26:31.745Z,16.53
2022-12-05T10:29:09.372Z,14.07
2022-12-05T10:31:40.522Z,14.93
2022-12-05T10:34:16.168Z,17.08
2022-12-05T10:36:52.085Z,15.88
2022-12-05T10:39:20.287Z,15.67
2022-12-05T10:41:49.803Z,16.85
2022-12-05T10:44:17.987Z,15.97
2022-12-05T10:46:46.244Z,16.27
2022-12-05T10:49:14.680Z,15.85
2022-12-05T10:51:42.836Z,16.83
2022-12-05T10:54:18.784Z,16.70
2022-12-05T10:56:49.990Z,14.90
2022-12-05T10:59:20.472Z,15.83
2022-12-05T11:01:51.866Z,15.87
2022-12-05T11:04:27.098Z,16.37
2022-12-05T11:07:00.931Z,15.07
2022-12-05T11:09:31.176Z,14.90
2022-12-05T11:12:13.939Z,14.37
2022-12-05T11:14:54.051Z,14.50
2022-12-05T11:17:26.199Z,13.70
2022-12-05T11:19:54.280Z,15.10
2022-12-05T11:22:30.977Z,16.17
2022-12-05T11:24:59.278Z,15.53
2022-12-05T11:27:31.629Z,15.77
2022-12-05T11:30:03.950Z,15.27
2022-12-05T11:32:33.704Z,14.60
2022-12-05T11:35:24.254Z,15.82
2022-12-05T11:37:56.709Z,15.57
2022-12-05T11:40:37.747Z,16.55
2022-12-05T11:43:27.677Z,16.60
2022-12-05T11:46:06.064Z,16.67
2022-12-05T11:48:50.942Z,15.77
2022-12-05T11:51:35.223Z,15.37
2022-12-05T11:55:03.208Z,16.00
2022-12-05T11:57:40.446Z,14.90
2022-12-05T12:00:19.218Z,15.18
2022-12-05T12:03:32.718Z,15.83
2022-12-05T12:06:16.813Z,15.57
2022-12-05T12:08:57.944Z,15.70
2022-12-05T12:11:34.657Z,15.30
2022-12-05T12:14:14.506Z,15.63
2022-12-05T12:16:54.039Z,16.27
2022-12-05T12:19:49.826Z,17.45
2022-12-05T12:22:45.566Z,16.92
2022-12-05T12:25:25.136Z,16.02
2022-12-05T12:28:04.475Z,17.00
2022-12-05T12:30:45.492Z,16.60
2022-12-05T12:33:26.832Z,16.50
2022-12-05T12:36:01.527Z,18.73
2022-12-05T12:38:51.563Z,19.23
2022-12-05T12:41:38.131Z,18.92
2022-12-05T12:44:30.592Z,18.65
2022-12-05T12:47:01.743Z,16.92
2022-12-05T12:49:44.980Z,19.08
2022-12-05T12:52:16.956Z,16.73
2022-12-05T12:55:04.275Z,16.67
2022-12-05T12:57:42.563Z,16.75
2022-12-05T13:00:21.572Z,17.52
2022-12-05T13:02:56.139Z,17.75
2022-12-05T13:05:33.606Z,17.70
2022-12-05T13:08:06.034Z,17.35
2022-12-05T13:10:39.443Z,18.67
2022-12-05T13:13:08.937Z,17.50
2022-12-05T13:15:41.849Z,18.85
2022-12-05T13:18:17.645Z,19.88
2022-12-05T13:20:48.941Z,17.23
2022-12-05T13:23:20.579Z,18.58
2022-12-05T13:25:49.710Z,17.40
2022-12-05T13:28:29.848Z,17.27
2022-12-05T13:31:01.520Z,17.42
2022-12-05T13:33:33.614Z,17.25
2022-12-05T13:36:27.124Z,18.70
2022-12-05T13:39:21.207Z,18.42
2022-12-05T13:42:09.562Z,16.83
2022-12-05T13:44:41.264Z,16.77
2022-12-05T13:47:26.829Z,16.40
2022-12-05T13:49:57.901Z,15.80
2022-12-05T13:52:31.978Z,16.90
2022-12-05T13:55:06.605Z,17.45
2022-12-05T13:57:52.491Z,17.38
2022-12-05T14:00:30.465Z,16.75
2022-12-05T14:03:04.787Z,18.15
2022-12-05T14:05:54.524Z,15.95
2022-12-05T14:08:52.464Z,17.15
2022-12-05T14:11:22.563Z,17.30
2022-12-05T14:13:50.836Z,16.70
2022-12-05T14:16:45.096Z,16.08
2022-12-05T14:19:52.051Z,16.43
2022-12-05T14:22:45.324Z,16.67
2022-12-05T14:25:28.012Z,15.57
2022-12-05T14:28:04.073Z,15.50
2022-12-05T14:30:46.455Z,17.42
2022-12-05T14:33:17.170Z,16.97
2022-12-05T14:35:48.890Z,18.02
2022-12-05T14:38:28.785Z,20.33
2022-12-05T14:41:06.411Z,17.77
2022-12-05T14:43:38.537Z,18.13
2022-12-05T14:46:09.364Z,17.17
2022-12-05T14:48:47.121Z,19.50
2022-12-05T14:51:57.166Z,18.53
2022-12-05T14:54:27.444Z,22.30
2022-12-05T14:57:06.453Z,18.52
2022-12-05T14:59:45.814Z,17.85
2022-12-05T15:02:21.258Z,18.27
2022-12-05T15:04:55.443Z,18.83
2022-12-05T15:07:32.717Z,18.67
2022-12-05T15:10:04.043Z,22.92
2022-12-05T15:12:38.952Z,20.75
2022-12-05T15:15:17.480Z,21.33
2022-12-05T15:17:50.184Z,22.73
2022-12-05T15:20:40.506Z,23.60
2022-12-05T15:23:39.381Z,22.10
2022-12-05T15:26:45.513Z,21.57
2022-12-05T15:29:08.988Z,21.08
2022-12-05T15:31:45.413Z,20.48
2022-12-05T15:34:18.955Z,21.00
2022-12-05T15:36:52.280Z,23.47
2022-12-05T15:39:25.799Z,21.60
2022-12-05T15:41:54.695Z,22.17
2022-12-05T15:44:27.257Z,20.73
2022-12-05T15:47:03.011Z,22.75
2022-12-05T15:49:31.165Z,21.87
2022-12-05T15:52:10.034Z,21.98
2022-12-05T15:54:39.604Z,21.88
2022-12-05T15:57:13.689Z,20.40
2022-12-05T15:59:44.694Z,20.80
2022-12-05T16:02:20.003Z,22.50
2022-12-05T16:04:51.210Z,20.03
2022-12-05T16:07:20.231Z,20.52
2022-12-05T16:09:48.739Z,19.52
2022-12-05T16:12:25.815Z,21.40
2022-12-05T16:15:00.663Z,21.02
2022-12-05T16:17:38.695Z,19.80
2022-12-05T16:20:22.637Z,19.48
2022-12-05T16:22:51.761Z,19.20
2022-12-05T16:25:24.243Z,19.95
2022-12-05T16:28:00.843Z,20.10
2022-12-05T16:30:29.676Z,19.95
2022-12-05T16:33:04.671Z,21.77
2022-12-05T16:35:38.393Z,20.83
2022-12-05T16:38:12.219Z,21.67
2022-12-05T16:40:42.204Z,20.88
2022-12-05T16:43:21.434Z,21.70
2022-12-05T16:45:51.226Z,20.73
2022-12-05T16:48:24.212Z,20.55
2022-12-05T16:50:54.243Z,20.23
2022-12-05T16:53:29.437Z,20.77
2022-12-05T16:55:58.937Z,22.08
2022-12-05T16:58:29.843Z,21.67
2022-12-05T17:01:02.996Z,20.85
2022-12-05T17:03:34.839Z,25.35
2022-12-05T17:06:03.827Z,20.20
2022-12-05T17:08:31.914Z,29.27
2022-12-05T17:11:01.944Z,39.05
2022-12-05T17:13:31.292Z,23.80
2022-12-05T17:15:59.514Z,44.28
2022-12-05T17:18:31.914Z,29.20
2022-12-05T17:21:03.390Z,23.23
2022-12-05T17:23:31.432Z,25.30
2022-12-05T17:26:00.517Z,22.85
2022-12-05T17:28:28.591Z,23.45
2022-12-05T17:30:57.331Z,23.13
2022-12-05T17:33:25.541Z,24.43
2022-12-05T17:35:53.617Z,25.92
2022-12-05T17:38:23.059Z,26.35
2022-12-05T17:40:51.655Z,24.40
2022-12-05T17:43:24.827Z,24.02
2022-12-05T17:45:54.707Z,27.10
2022-12-05T17:48:23.224Z,26.02
2022-12-05T17:50:51.433Z,25.42
2022-12-05T17:53:22.449Z,26.27
2022-12-05T17:55:50.917Z,24.92
2022-12-05T17:58:19.361Z,26.42
2022-12-05T18:00:48.414Z,26.40
2022-12-05T18:03:18.029Z,26.15
2022-12-05T18:05:47.549Z,26.10
2022-12-05T18:08:16.970Z,25.55
2022-12-05T18:10:48.420Z,25.42
2022-12-05T18:13:17.429Z,26.55
2022-12-05T18:15:48.333Z,27.17
2022-12-05T18:18:18.581Z,26.02
2022-12-05T18:20:46.708Z,26.52
2022-12-05T18:23:14.786Z,26.55
2022-12-05T18:25:43.025Z,25.50
2022-12-05T18:28:16.428Z,26.42
2022-12-05T18:30:47.632Z,24.13
2022-12-05T18:33:15.686Z,27.70
2022-12-05T18:35:43.839Z,28.40
2022-12-05T18:38:12.378Z,27.42
2022-12-05T18:40:40.548Z,28.10
2022-12-05T18:43:08.605Z,28.75
2022-12-05T18:45:38.309Z,27.33
2022-12-05T18:48:23.831Z,27.58
2022-12-05T18:50:55.066Z,30.38
2022-12-05T18:53:23.210Z,28.95
2022-12-05T18:56:20.090Z,27.30
2022-12-05T18:58:39.564Z,29.80
2022-12-05T19:01:11.637Z,28.80
2022-12-05T19:03:40.885Z,28.80
2022-12-05T19:06:16.376Z,31.27
2022-12-05T19:08:45.475Z,28.17
2022-12-05T19:11:13.920Z,27.55
2022-12-05T19:13:42.272Z,28.27
2022-12-05T19:16:16.849Z,28.85
2022-12-05T19:18:45.427Z,28.02
2022-12-05T19:21:13.673Z,29.42
2022-12-05T19:23:42.272Z,27.20
2022-12-05T19:26:11.710Z,29.08
2022-12-05T19:28:39.767Z,24.38
2022-12-05T19:31:09.807Z,25.02
2022-12-05T19:33:41.415Z,25.50
2022-12-05T19:36:11.962Z,26.35
2022-12-05T19:38:41.311Z,24.95
2022-12-05T19:41:12.421Z,25.88
2022-12-05T19:43:40.917Z,24.67
2022-12-05T19:46:12.007Z,25.70
2022-12-05T19:48:41.704Z,25.83
2022-12-05T19:51:10.326Z,22.52
2022-12-05T19:53:41.165Z,23.50
2022-12-05T19:56:12.574Z,23.75
2022-12-05T19:58:41.358Z,23.60
2022-12-05T20:01:11.063Z,23.60
2022-12-05T20:03:41.108Z,28.67
2022-12-05T20:06:10.774Z,24.02
2022-12-05T20:08:40.104Z,23.23
2022-12-05T20:11:09.870Z,23.17
2022-12-05T20:13:46.400Z,23.98
2022-12-05T20:16:18.421Z,27.95
2022-12-05T20:18:48.900Z,26.92
2022-12-05T20:21:18.774Z,27.48
2022-12-05T20:23:46.999Z,27.88
2022-12-05T20:26:16.829Z,24.38
2022-12-05T20:28:45.726Z,23.58
2022-12-05T20:31:15.345Z,26.30
2022-12-05T20:33:44.313Z,24.35
2022-12-05T20:36:15.626Z,22.92
2022-12-05T20:38:43.748Z,22.30
2022-12-05T20:41:15.384Z,25.95
2022-12-05T20:43:44.114Z,22.33
2022-12-05T20:46:14.970Z,24.17
2022-12-05T20:48:43.634Z,20.30
2022-12-05T20:51:14.837Z,20.13
2022-12-05T20:53:43.987Z,21.80
2022-12-05T20:56:13.421Z,20.77
2022-12-05T20:58:42.191Z,23.23
2022-12-05T21:01:12.303Z,21.00
2022-12-05T21:03:42.295Z,21.88
2022-12-05T21:06:12.094Z,21.83
2022-12-05T21:08:41.824Z,21.60
2022-12-05T21:11:12.008Z,19.85
2022-12-05T21:13:40.350Z,17.92
2022-12-05T21:16:11.149Z,18.58
2022-12-05T21:18:39.832Z,22.98
2022-12-05T21:21:13.350Z,18.92
2022-12-05T21:23:43.350Z,17.30
2022-12-05T21:26:13.179Z,14.18
2022-12-05T21:28:42.351Z,13.75
2022-12-05T21:31:12.842Z,12.80
2022-12-05T21:33:42.100Z,15.40
2022-12-05T21:36:10.959Z,14.43
2022-12-05T21:38:39.161Z,14.75
2022-12-05T21:41:08.919Z,14.40
2022-12-05T21:43:37.683Z,13.38
2022-12-05T21:46:06.693Z,11.45
2022-12-05T21:48:35.817Z,14.57
2022-12-05T21:51:07.408Z,12.50
2022-12-05T21:53:35.894Z,12.10
2022-12-05T21:56:06.896Z,13.02
2022-12-05T21:58:41.869Z,11.68
2022-12-05T22:01:11.515Z,12.85
2022-12-05T22:03:39.842Z,12.25
2022-12-05T22:06:10.777Z,10.43
2022-12-05T22:08:39.884Z,11.48
2022-12-05T22:11:09.173Z,11.68
2022-12-05T22:13:39.042Z,11.60
2022-12-05T22:16:08.372Z,11.70
2022-12-05T22:18:37.269Z,11.68
2022-12-05T22:21:07.580Z,10.60
2022-12-05T22:23:36.422Z,11.82
2022-12-05T22:26:06.572Z,10.30
2022-12-05T22:28:35.526Z,11.10
2022-12-05T22:31:06.839Z,10.35
2022-12-05T22:33:36.543Z,10.43
2022-12-05T22:36:06.946Z,10.60
2022-12-05T22:38:36.497Z,9.05
2022-12-05T22:41:07.041Z,9.25
2022-12-05T22:43:36.646Z,10.55
2022-12-05T22:46:07.525Z,9.02
2022-12-05T22:48:36.267Z,9.75
2022-12-05T22:51:06.061Z,10.27
2022-12-05T22:53:34.223Z,9.00
2022-12-05T22:56:04.373Z,8.07
2022-12-05T22:58:32.874Z,9.73
2022-12-05T23:01:11.768Z,8.32
2022-12-05T23:03:40.496Z,7.70
2022-12-05T23:06:11.963Z,7.80
2022-12-05T23:08:41.935Z,7.93
2022-12-05T23:11:11.516Z,8.32
2022-12-05T23:13:40.554Z,8.13
2022-12-05T23:16:14.175Z,7.43
2022-12-05T23:18:48.702Z,7.60
2022-12-05T23:21:19.131Z,7.75
2022-12-05T23:23:48.276Z,7.22
2022-12-05T23:26:17.443Z,7.55
2022-12-05T23:28:46.074Z,8.00
2022-12-05T23:31:16.784Z,6.70
2022-12-05T23:33:46.189Z,7.40
2022-12-05T23:36:16.968Z,6.93
2022-12-05T23:38:45.350Z,6.45
2022-12-05T23:41:16.196Z,7.35
2022-12-05T23:43:45.425Z,7.10
2022-12-05T23:46:16.715Z,7.85
2022-12-05T23:48:45.119Z,6.55
2022-12-05T23:51:15.783Z,7.15
2022-12-05T23:53:45.505Z,7.18
2022-12-05T23:56:15.846Z,7.07
2022-12-05T23:58:44.722Z,6.63
